Overview Statistics Trail Chart Weather Telemetry Raw packets
 

This is the latest recevied telemetry packets stored in our database for station/object OE3GJC-31. If no packets are shown the sender has not sent any telemetry packets the latest 10 day(s).

Telemetry packets is used to share measurements like repeteater parameters, battery voltage, radiation readings (or any other measurements).

<< 1 2 3 4 >>
Time Press* Temp.in* Hum* QNH* Temp.out*
1778109425 985.1 hPa 18.9 C deg 0 % 1006.9 hPa 16.3 C deg
1778107609 985.1 hPa 19 C deg 0 % 1006.9 hPa 16 C deg
1778105793 984.7 hPa 19 C deg 0 % 1006.5 hPa 16.1 C deg
1778100356 983 hPa 19.2 C deg 0 % 1004.8 hPa 17.3 C deg
1778098532 982.9 hPa 19.2 C deg 0 % 1004.7 hPa 17.6 C deg
1778096717 982.9 hPa 19.2 C deg 0 % 1004.7 hPa 17.9 C deg
1778094902 982.5 hPa 19.3 C deg 0 % 1004.3 hPa 18.5 C deg
1778093092 982.4 hPa 19.4 C deg 0 % 1004.2 hPa 19 C deg
1778091271 982 hPa 19.5 C deg 0 % 1003.8 hPa 19.8 C deg
1778089458 981.8 hPa 19.7 C deg 0 % 1003.6 hPa 20.7 C deg
1778087646 981.9 hPa 19.8 C deg 0 % 1003.6 hPa 21.8 C deg
1778085830 981.8 hPa 20 C deg 0 % 1003.5 hPa 23.1 C deg
1778084019 982.2 hPa 20.2 C deg 0 % 1003.9 hPa 24.2 C deg
1778082206 982.2 hPa 20.5 C deg 0 % 1003.8 hPa 25.8 C deg
1778080384 982.3 hPa 20.8 C deg 0 % 1003.9 hPa 26.8 C deg
1778078568 982.1 hPa 20.9 C deg 0 % 1003.8 hPa 28 C deg
1778076754 982.2 hPa 20.6 C deg 0 % 1003.9 hPa 26.8 C deg
1778074936 982.3 hPa 20.6 C deg 0 % 1003.9 hPa 26.3 C deg
1778073125 982.4 hPa 20 C deg 0 % 1004.1 hPa 25.7 C deg
1778071309 982.8 hPa 20.1 C deg 0 % 1004.6 hPa 26.8 C deg
1778069494 983 hPa 20.4 C deg 0 % 1004.7 hPa 26.2 C deg
1778067679 983.5 hPa 20.5 C deg 0 % 1005.2 hPa 25.8 C deg
1778064046 984.5 hPa 20.2 C deg 0 % 1006.2 hPa 23.9 C deg
1778062232 985.1 hPa 20.1 C deg 0 % 1006.9 hPa 23.6 C deg
1778060416 985.4 hPa 19.6 C deg 0 % 1007.2 hPa 23.4 C deg
*Used Equation Coefficients:
Press: 0, 1, 0
Temp.in: 0, 1, 0
Hum: 0, 1, 0
QNH: 0, 1, 0
Temp.out: 0, 1, 0

  • The parameter names for the analog channels will be Value1, Value2, Value3 (up to Value5) if station has not sent a PARAM-packet that specifies the parameter names for each analog channel.
  • Each analog value is a decimal number between 000 and 255 (according to APRS specifications). The receiver use the telemetry equation coefficientsto to restore the original sensor values. If no EQNS-packet with equation coefficients is sent we will show the values as is (this corresponds to the equation coefficients a=0, b=1 and c=0).
    The sent equation coefficients is used in the equation: a * value2 + b * value + c.
  • The units for the analog values will not be shown if station has not sent a UNIT-packet specifying what unit's to use.
  • The parameter names for the digital bits will be Bit1, Bit2, Bit3 (up to Bit8) if station has not sent a PARAM-packet that specifies the parameter names for each digital bit.
  • All bit labels will be named "On" if station has not sent a UNIT-packet that specifies the label of each bit.
  • A bit is considered to be On when the bit is 1 if station has not sent a BITS-packet that specifies another "Bit sense" (a BITS-packet specify the state of the bits that match the BIT labels)